Time;durP1;ratioP1;P1;durP2;ratioP2;P2;SDS_P1;SDS_P2;PMS_P1;PMS_P2;Temp;Humidity;BMP_temperature;BMP_pressure;BME280_temperature;BME280_humidity;BME280_pressure;Samples;Min_cycle;Max_cycle;Signal;HPM_P1;HPM_P2
2021/05/11 00:01:48;;;;;;;3.85;2.63;;;;;;;16.19;nan;100983.81;5037921;28;20029;-47
2021/05/11 00:04:13;;;;;;;5.25;2.70;;;;;;;16.25;nan;100982.69;5040184;28;20041;-47
2021/05/11 00:06:40;;;;;;;6.72;3.03;;;;;;;16.19;nan;100983.03;5038650;28;20246;-48
2021/05/11 00:09:06;;;;;;;6.90;3.35;;;;;;;16.19;nan;100983.81;5039050;28;20101;-47
2021/05/11 00:11:33;;;;;;;4.85;3.15;;;;;;;16.15;nan;100979.22;5020014;28;20035;-47
2021/05/11 00:13:58;;;;;;;5.45;3.45;;;;;;;16.12;nan;100983.31;5019687;28;20037;-47
2021/05/11 00:16:24;;;;;;;7.03;3.60;;;;;;;16.05;nan;100988.22;5041499;28;20079;-48
2021/05/11 00:18:49;;;;;;;12.38;4.43;;;;;;;16.01;nan;100984.47;5025620;28;20169;-47
2021/05/11 00:21:15;;;;;;;4.78;3.67;;;;;;;15.96;nan;100984.47;5038469;28;20025;-47
2021/05/11 00:23:40;;;;;;;7.45;4.13;;;;;;;15.90;nan;100986.41;5037578;28;20288;-47
2021/05/11 00:26:06;;;;;;;7.90;4.75;;;;;;;15.83;nan;100991.31;5036692;28;20025;-48
2021/05/11 00:28:31;;;;;;;5.88;4.10;;;;;;;15.83;nan;101001.31;5042081;28;20088;-47
2021/05/11 00:30:57;;;;;;;7.22;4.63;;;;;;;15.81;nan;100985.38;5039795;28;20052;-48
2021/05/11 00:33:22;;;;;;;8.73;4.40;;;;;;;15.75;nan;100986.47;5040527;28;20391;-47
2021/05/11 00:35:48;;;;;;;9.75;4.93;;;;;;;15.73;nan;100979.72;5038266;28;20090;-48
2021/05/11 00:38:13;;;;;;;7.82;4.68;;;;;;;15.64;nan;100983.00;5040850;28;20422;-48
2021/05/11 00:40:39;;;;;;;9.38;5.20;;;;;;;15.56;nan;100978.13;5040731;28;20451;-48
2021/05/11 00:43:05;;;;;;;8.60;4.13;;;;;;;15.58;nan;100977.84;5039193;28;20029;-46
2021/05/11 00:45:30;;;;;;;7.90;4.65;;;;;;;15.55;nan;100979.22;5038888;28;20032;-48
2021/05/11 00:47:55;;;;;;;6.85;4.50;;;;;;;15.47;nan;100971.69;5035355;28;20467;-47
2021/05/11 00:50:21;;;;;;;8.48;4.32;;;;;;;15.43;nan;100971.41;5039178;28;20021;-46
2021/05/11 00:52:47;;;;;;;7.43;4.13;;;;;;;15.20;nan;100968.50;5039820;28;20033;-47
2021/05/11 00:55:13;;;;;;;7.47;3.92;;;;;;;15.19;nan;100964.19;5035861;28;20489;-47
2021/05/11 00:57:39;;;;;;;5.75;3.95;;;;;;;15.11;nan;100969.09;5036710;28;20114;-47
2021/05/11 01:00:08;;;;;;;9.50;3.85;;;;;;;15.11;nan;100968.28;5040125;28;20026;-46
2021/05/11 01:02:33;;;;;;;5.80;3.70;;;;;;;15.07;nan;100956.38;5036950;28;20026;-47
2021/05/11 01:04:59;;;;;;;7.32;3.78;;;;;;;15.02;nan;100951.00;5038770;28;20045;-48
2021/05/11 01:07:25;;;;;;;6.45;3.97;;;;;;;15.01;nan;100952.09;5037270;28;20032;-47
2021/05/11 01:09:51;;;;;;;8.10;3.60;;;;;;;15.10;nan;100950.47;5034182;28;20043;-47
2021/05/11 01:12:17;;;;;;;5.30;3.30;;;;;;;15.02;nan;100953.69;5037712;28;20056;-46
2021/05/11 01:14:42;;;;;;;7.47;3.63;;;;;;;14.98;nan;100942.66;5039707;28;20048;-46
2021/05/11 01:17:15;;;;;;;6.53;3.72;;;;;;;14.93;nan;100939.97;5039334;28;20060;-46
2021/05/11 01:24:46;;;;;;;7.60;3.90;;;;;;;14.79;nan;100934.31;5034475;28;20116;-47
2021/05/11 01:29:50;;;;;;;7.95;3.97;;;;;;;14.81;nan;100921.38;5038346;28;20517;-47
2021/05/11 01:57:07;;;;;;;5.20;4.22;;;;;;;14.61;nan;100894.41;5037116;28;21899;-47
2021/05/11 02:23:29;;;;;;;8.25;5.75;;;;;;;13.98;nan;100869.56;5038788;28;20515;-47
2021/05/11 02:25:56;;;;;;;9.98;5.75;;;;;;;13.98;nan;100869.56;5038080;28;20037;-48
2021/05/11 02:28:21;;;;;;;10.82;6.30;;;;;;;13.90;nan;100872.78;5038970;28;20079;-48
2021/05/11 02:30:47;;;;;;;6.55;5.78;;;;;;;13.78;nan;100875.72;5037836;28;20029;-47
2021/05/11 02:33:12;;;;;;;11.52;6.20;;;;;;;13.84;nan;100874.69;5023974;28;20441;-46
2021/05/11 02:35:38;;;;;;;12.13;6.78;;;;;;;13.71;nan;100879.75;5038667;28;20503;-46
2021/05/11 02:38:03;;;;;;;8.82;6.88;;;;;;;13.69;nan;100869.25;5037532;28;20196;-47
2021/05/11 02:40:29;;;;;;;10.35;6.13;;;;;;;13.75;nan;100862.00;5039908;28;20017;-46
2021/05/11 02:43:02;;;;;;;11.55;5.93;;;;;;;13.81;nan;100858.22;5043283;28;20029;-46
2021/05/11 02:45:28;;;;;;;6.97;6.28;;;;;;;13.62;nan;100852.53;5040176;28;20033;-47
2021/05/11 02:47:54;;;;;;;10.05;6.65;;;;;;;13.71;nan;100850.13;5038775;28;20032;-47
2021/05/11 02:50:22;;;;;;;7.78;6.07;;;;;;;13.63;nan;100850.63;5041813;28;20021;-47
2021/05/11 02:52:48;;;;;;;7.80;5.65;;;;;;;13.67;nan;100840.97;5032975;28;20116;-46
2021/05/11 02:55:16;;;;;;;9.82;5.90;;;;;;;13.68;nan;100846.09;5039425;28;20500;-47
2021/05/11 02:57:42;;;;;;;10.95;6.50;;;;;;;13.68;nan;100843.41;5037175;28;20445;-48
2021/05/11 03:00:09;;;;;;;9.30;5.80;;;;;;;13.67;nan;100833.72;5040291;28;20209;-47
2021/05/11 03:02:35;;;;;;;7.55;5.70;;;;;;;13.64;nan;100836.91;5038382;28;20029;-47
2021/05/11 03:05:01;;;;;;;10.38;6.10;;;;;;;13.67;nan;100841.78;5039459;28;20514;-46
2021/05/11 03:07:26;;;;;;;10.65;6.25;;;;;;;13.64;nan;100836.91;5038759;28;20206;-46
2021/05/11 03:09:52;;;;;;;9.30;5.82;;;;;;;13.67;nan;100830.22;5038959;28;20029;-46
2021/05/11 03:12:19;;;;;;;11.38;6.55;;;;;;;13.62;nan;100833.69;5037059;28;20438;-47
2021/05/11 03:14:45;;;;;;;7.88;5.93;;;;;;;13.64;nan;100834.22;5039496;28;20033;-47
2021/05/11 03:17:10;;;;;;;8.50;5.80;;;;;;;13.64;nan;100826.16;5041562;28;20036;-47
2021/05/11 03:19:36;;;;;;;9.88;6.97;;;;;;;13.24;nan;100829.53;5040440;28;20029;-47
2021/05/11 03:22:02;;;;;;;9.20;6.18;;;;;;;13.40;nan;100838.47;5036192;28;20805;-47
2021/05/11 03:24:27;;;;;;;8.55;5.78;;;;;;;13.46;nan;100824.75;5037630;28;20025;-47
2021/05/11 03:26:53;;;;;;;11.25;6.47;;;;;;;13.52;nan;100823.72;5037807;28;20052;-49
2021/05/11 03:29:19;;;;;;;7.65;6.50;;;;;;;13.49;nan;100824.25;5039221;28;20087;-47
2021/05/11 03:31:44;;;;;;;11.68;7.13;;;;;;;13.36;nan;100832.81;5029303;28;20103;-47
2021/05/11 03:34:10;;;;;;;9.88;6.82;;;;;;;13.43;nan;100825.28;5036929;28;20052;-46
2021/05/11 03:36:36;;;;;;;8.80;7.20;;;;;;;13.43;nan;100827.16;5028189;28;20064;-47
2021/05/11 03:39:05;;;;;;;10.98;7.32;;;;;;;13.39;nan;100834.97;5037023;28;20035;-46
2021/05/11 03:41:37;;;;;;;9.82;6.82;;;;;;;13.41;nan;100832.00;5038504;28;20025;-46
2021/05/11 03:44:15;;;;;;;9.85;6.47;;;;;;;13.44;nan;100829.59;5040202;28;20570;-46
2021/05/11 03:46:41;;;;;;;10.15;7.65;;;;;;;13.41;nan;100837.41;5036938;28;20033;-47
2021/05/11 03:49:07;;;;;;;14.57;7.60;;;;;;;13.18;nan;100834.09;5038444;28;20037;-46
2021/05/11 03:51:34;;;;;;;13.18;8.18;;;;;;;13.25;nan;100834.66;5037202;28;20025;-47
2021/05/11 03:54:00;;;;;;;10.20;7.63;;;;;;;13.33;nan;100832.53;5039294;28;20482;-47
2021/05/11 03:56:26;;;;;;;11.15;7.35;;;;;;;13.48;nan;100825.31;5035681;28;20056;-48
2021/05/11 03:58:52;;;;;;;10.77;7.57;;;;;;;13.48;nan;100830.72;5036004;28;20511;-46
2021/05/11 04:01:18;;;;;;;14.18;7.63;;;;;;;13.40;nan;100841.97;5037487;28;20510;-49
2021/05/11 04:03:43;;;;;;;11.10;7.65;;;;;;;13.26;nan;100840.84;5038212;28;20014;-46
2021/05/11 04:06:09;;;;;;;11.68;8.02;;;;;;;13.29;nan;100840.34;5032087;28;20031;-47
2021/05/11 04:08:40;;;;;;;14.48;7.93;;;;;;;13.21;nan;100848.91;5038793;28;20029;-48
2021/05/11 04:11:32;;;;;;;14.40;8.55;;;;;;;13.17;nan;100845.91;5033740;28;20404;-47
2021/05/11 04:16:37;;;;;;;12.30;8.43;;;;;;;13.41;nan;100838.19;5039285;28;20049;-46
2021/05/11 04:19:03;;;;;;;13.07;8.43;;;;;;;13.47;nan;100837.16;5037681;28;20037;-46
2021/05/11 04:21:28;;;;;;;11.88;8.55;;;;;;;13.53;nan;100833.41;5037601;28;20040;-47
2021/05/11 04:23:55;;;;;;;15.52;8.80;;;;;;;13.68;nan;100831.81;5040878;28;20036;-47
2021/05/11 04:26:22;;;;;;;13.10;8.70;;;;;;;13.83;nan;100834.56;5038790;28;20024;-46
2021/05/11 04:28:48;;;;;;;12.68;9.30;;;;;;;13.98;nan;100834.53;5035788;28;20035;-47
2021/05/11 04:31:14;;;;;;;12.48;9.27;;;;;;;14.19;nan;100830.00;5039487;28;20263;-46
2021/05/11 04:33:41;;;;;;;15.80;9.13;;;;;;;14.33;nan;100832.94;5039760;28;20021;-46
2021/05/11 04:36:07;;;;;;;14.15;9.07;;;;;;;14.40;nan;100836.97;5039346;28;20036;-47
2021/05/11 04:38:33;;;;;;;17.65;8.98;;;;;;;14.49;nan;100834.56;5022192;28;20082;-48
2021/05/11 04:40:59;;;;;;;14.82;9.23;;;;;;;14.62;nan;100830.50;5038371;28;20033;-47
2021/05/11 04:43:27;;;;;;;15.80;10.18;;;;;;;14.80;nan;100832.63;5037578;28;20475;-46
2021/05/11 04:46:06;;;;;;;16.65;10.05;;;;;;;14.97;nan;100832.31;5037265;28;20028;-46
2021/05/11 04:48:32;;;;;;;15.45;9.60;;;;;;;15.02;nan;100829.59;5038407;28;20029;-47
2021/05/11 04:50:58;;;;;;;18.00;10.63;;;;;;;15.21;nan;100827.09;5036548;28;20041;-46
2021/05/11 04:53:23;;;;;;;17.10;9.85;;;;;;;15.32;nan;100834.88;5043300;28;20017;-47
2021/05/11 04:55:49;;;;;;;16.30;9.52;;;;;;;15.35;nan;100831.59;5039756;28;20292;-46
2021/05/11 04:58:15;;;;;;;14.15;9.70;;;;;;;15.38;nan;100832.94;5042246;28;20108;-48
2021/05/11 05:00:41;;;;;;;21.38;9.80;;;;;;;15.33;nan;100825.69;5035932;28;20120;-47
2021/05/11 05:03:09;;;;;;;17.58;9.60;;;;;;;15.28;nan;100819.50;5036330;28;20029;-46
2021/05/11 05:05:35;;;;;;;17.27;10.27;;;;;;;15.34;nan;100832.69;5037054;28;20031;-46
2021/05/11 05:08:00;;;;;;;14.73;9.60;;;;;;;15.50;nan;100825.31;5036616;28;20108;-47
2021/05/11 05:10:26;;;;;;;16.60;9.60;;;;;;;15.74;nan;100828.16;5035181;28;20021;-46
2021/05/11 05:12:52;;;;;;;18.02;9.70;;;;;;;15.91;nan;100828.59;5039782;28;20052;-46
2021/05/11 05:15:17;;;;;;;13.10;8.95;;;;;;;16.06;nan;100830.38;5038142;28;20299;-47
2021/05/11 05:17:43;;;;;;;13.48;8.93;;;;;;;16.12;nan;100831.13;5033095;28;20458;-48
2021/05/11 05:20:09;;;;;;;15.38;9.25;;;;;;;16.19;nan;100832.44;5036868;28;20033;-47
2021/05/11 05:22:35;;;;;;;13.70;9.05;;;;;;;16.26;nan;100826.69;5022668;28;20025;-47
2021/05/11 05:25:09;;;;;;;14.07;9.05;;;;;;;16.50;nan;100832.16;5035721;28;20165;-47
2021/05/11 05:30:05;;;;;;;15.27;8.95;;;;;;;16.48;nan;100827.03;5035941;28;20438;-47
2021/05/11 05:32:30;;;;;;;12.55;8.60;;;;;;;16.46;nan;100837.31;5031148;28;20029;-46
2021/05/11 05:34:56;;;;;;;12.63;8.95;;;;;;;16.38;nan;100827.13;5032798;28;20040;-46
2021/05/11 05:37:21;;;;;;;12.68;8.93;;;;;;;16.24;nan;100821.56;5034717;28;20459;-47
2021/05/11 05:39:49;;;;;;;14.48;9.10;;;;;;;16.25;nan;100825.09;5030632;28;20506;-47
2021/05/11 05:42:15;;;;;;;16.50;9.15;;;;;;;16.37;nan;100825.53;5035539;28;20036;-46
2021/05/11 05:44:40;;;;;;;12.90;9.18;;;;;;;16.63;nan;100829.59;5036352;28;20021;-47
2021/05/11 05:47:06;;;;;;;13.70;9.35;;;;;;;16.81;nan;100821.84;5031252;28;20029;-47
2021/05/11 05:49:39;;;;;;;12.88;8.30;;;;;;;17.06;nan;100818.88;5033192;28;20060;-47
2021/05/11 05:52:06;;;;;;;15.15;9.77;;;;;;;17.17;nan;100820.34;5031074;28;20043;-47
2021/05/11 05:54:32;;;;;;;13.50;9.05;;;;;;;17.28;nan;100809.38;5034135;28;20040;-47
2021/05/11 05:56:57;;;;;;;14.80;8.98;;;;;;;17.37;nan;100804.91;5016519;28;20559;-47
2021/05/11 05:59:23;;;;;;;11.13;9.18;;;;;;;17.32;nan;100799.59;5031403;28;20087;-47
2021/05/11 06:01:49;;;;;;;15.55;8.57;;;;;;;17.40;nan;100779.97;5032721;28;20032;-47
2021/05/11 06:04:19;;;;;;;13.93;8.38;;;;;;;17.49;nan;100789.84;5031934;28;20465;-47
2021/05/11 06:06:46;;;;;;;11.55;8.30;;;;;;;17.70;nan;100782.25;5031518;28;20126;-47
2021/05/11 06:09:18;;;;;;;11.30;7.50;;;;;;;17.93;nan;100779.72;5031898;28;20224;-48
2021/05/11 06:19:35;;;;;;;12.13;8.10;;;;;;;18.99;nan;100774.25;5032582;28;20107;-48
2021/05/11 06:22:01;;;;;;;13.10;9.48;;;;;;;19.10;nan;100769.44;5031001;28;20041;-47
2021/05/11 06:24:26;;;;;;;12.43;8.32;;;;;;;19.06;nan;100765.72;5032589;28;20025;-48
2021/05/11 06:26:52;;;;;;;12.55;8.15;;;;;;;18.97;nan;100765.63;5034317;28;20107;-48
2021/05/11 06:29:20;;;;;;;13.80;8.43;;;;;;;19.01;nan;100767.41;5033311;28;20274;-50
2021/05/11 06:31:45;;;;;;;13.50;7.20;;;;;;;19.45;nan;100755.06;5031736;28;20024;-49
2021/05/11 06:34:11;;;;;;;9.75;8.50;;;;;;;19.55;nan;100754.81;5032924;28;22323;-51
2021/05/11 06:36:37;;;;;;;11.30;7.15;;;;;;;19.41;nan;100751.34;5034533;28;20228;-49
2021/05/11 06:39:06;;;;;;;8.93;6.93;;;;;;;19.57;nan;100747.19;5034617;28;20132;-50
2021/05/11 06:41:32;;;;;;;14.93;7.90;;;;;;;19.43;nan;100742.88;5036429;28;20068;-48
2021/05/11 06:44:04;;;;;;;8.65;6.80;;;;;;;19.68;nan;100736.06;5038282;28;20103;-47
2021/05/11 06:55:07;;;;;;;7.57;5.63;;;;;;;20.25;nan;100703.59;5013685;28;20514;-47
2021/05/11 06:57:33;;;;;;;10.55;5.70;;;;;;;20.55;nan;100701.97;5041156;28;20028;-47
2021/05/11 06:59:58;;;;;;;7.65;5.55;;;;;;;20.66;nan;100695.13;5041202;28;20044;-47
2021/05/11 07:02:24;;;;;;;8.85;6.13;;;;;;;20.89;nan;100695.81;5038031;28;20024;-47
2021/05/11 07:04:53;;;;;;;10.63;5.60;;;;;;;21.19;nan;100694.09;5037848;28;20107;-47
2021/05/11 07:07:20;;;;;;;8.35;6.03;;;;;;;21.41;nan;100681.13;5037623;28;20036;-47
2021/05/11 07:15:01;;;;;;;8.70;5.13;;;;;;;22.09;nan;100664.94;5038025;28;20095;-47
2021/05/11 07:17:28;;;;;;;10.73;5.45;;;;;;;22.15;nan;100662.84;5031115;28;20562;-48
2021/05/11 07:19:54;;;;;;;10.43;5.03;;;;;;;22.14;nan;100656.56;5030694;28;20359;-48
2021/05/11 07:22:23;;;;;;;7.70;4.25;;;;;;;22.44;nan;100654.66;5031582;28;21172;-47
2021/05/11 07:24:52;;;;;;;6.07;4.53;;;;;;;22.62;nan;100644.41;5033338;28;20047;-48
2021/05/11 07:30:14;;;;;;;8.23;4.72;;;;;;;22.99;nan;100655.63;5033624;28;20052;-47
2021/05/11 07:32:41;;;;;;;6.38;4.22;;;;;;;23.24;nan;100651.06;5017731;28;20059;-47
2021/05/11 07:35:07;;;;;;;5.45;4.03;;;;;;;23.43;nan;100643.16;5032462;28;20483;-50
2021/05/11 07:37:32;;;;;;;6.22;4.22;;;;;;;23.43;nan;100643.16;5033712;28;20320;-48
2021/05/11 07:39:59;;;;;;;6.20;4.60;;;;;;;23.64;nan;100632.97;5033326;28;20059;-48
2021/05/11 07:42:24;;;;;;;5.55;4.55;;;;;;;23.69;nan;100640.16;5038009;28;20029;-49
2021/05/11 07:44:53;;;;;;;6.70;4.25;;;;;;;23.95;nan;100642.63;5014346;28;20032;-49
2021/05/11 07:48:09;;;;;;;5.63;3.85;;;;;;;24.00;nan;100643.19;5037329;28;20036;-49
2021/05/11 08:17:01;;;;;;;7.22;3.10;;;;;;;25.66;nan;100632.06;4963267;28;20383;-48
2021/05/11 08:27:44;;;;;;;4.80;3.55;;;;;;;25.89;nan;100622.13;5037225;28;20134;-48
2021/05/11 08:30:10;;;;;;;7.03;3.22;;;;;;;26.13;nan;100612.91;5036820;28;20032;-48
2021/05/11 08:32:36;;;;;;;7.00;3.78;;;;;;;26.23;nan;100616.25;5035078;28;20487;-51
2021/05/11 08:35:02;;;;;;;5.68;3.17;;;;;;;26.33;nan;100615.69;5037283;28;20024;-48
2021/05/11 08:37:27;;;;;;;7.60;3.25;;;;;;;26.45;nan;100607.38;5036887;28;20033;-49
2021/05/11 08:39:53;;;;;;;6.28;3.15;;;;;;;26.48;nan;100612.94;5036686;28;20549;-49
2021/05/11 08:42:18;;;;;;;5.97;3.70;;;;;;;26.32;nan;100614.09;5037332;28;20533;-48
2021/05/11 08:44:44;;;;;;;6.47;3.25;;;;;;;26.05;nan;100607.59;5038306;28;20122;-48
2021/05/11 08:47:10;;;;;;;15.30;4.15;;;;;;;26.56;nan;100608.41;5039377;28;20036;-48
2021/05/11 08:49:38;;;;;;;9.25;3.20;;;;;;;26.85;nan;100609.00;5036080;28;20056;-49
2021/05/11 09:04:34;;;;;;;20.70;5.00;;;;;;;26.50;nan;100607.88;5036747;28;20497;-47
2021/05/11 09:08:38;;;;;;;3.90;3.03;;;;;;;27.32;nan;100626.09;5037107;28;20029;-48
2021/05/11 09:25:32;;;;;;;4.45;2.83;;;;;;;28.38;nan;100629.13;5021408;28;20149;-48
2021/05/11 09:28:03;;;;;;;5.00;2.97;;;;;;;28.58;nan;100627.84;5035432;28;20044;-51
2021/05/11 09:56:35;;;;;;;4.63;2.72;;;;;;;27.22;nan;100585.44;5038392;28;20047;-47
2021/05/11 10:46:57;;;;;;;2.72;1.92;;;;;;;30.35;nan;100501.00;5036395;28;20039;-48
2021/05/11 10:49:40;;;;;;;5.07;2.45;;;;;;;30.34;nan;100504.13;5037073;28;20043;-47
2021/05/11 10:52:14;;;;;;;4.03;2.30;;;;;;;30.47;nan;100497.06;5035765;28;20028;-50
2021/05/11 10:54:47;;;;;;;5.07;2.47;;;;;;;30.61;nan;100499.94;5031505;28;20147;-47
2021/05/11 10:57:57;;;;;;;5.72;2.55;;;;;;;30.48;nan;100493.13;5018160;28;20751;-47
2021/05/11 11:03:20;;;;;;;3.33;2.28;;;;;;;30.89;nan;100484.59;5038436;28;20029;-47
2021/05/11 11:05:53;;;;;;;6.72;2.45;;;;;;;30.49;nan;100483.66;5040592;28;20116;-48
2021/05/11 11:08:36;;;;;;;3.60;2.28;;;;;;;30.15;nan;100474.03;5037496;28;20045;-48
2021/05/11 11:11:11;;;;;;;7.22;2.25;;;;;;;30.64;nan;100465.97;5034684;28;20249;-48
2021/05/11 11:13:42;;;;;;;6.05;2.53;;;;;;;30.92;nan;100465.25;5038034;28;20025;-51
2021/05/11 11:16:08;;;;;;;4.35;2.00;;;;;;;31.14;nan;100456.97;5022907;28;20037;-47
2021/05/11 11:18:34;;;;;;;3.97;2.13;;;;;;;31.29;nan;100450.28;5040919;28;20280;-49
2021/05/11 11:23:55;;;;;;;3.05;2.05;;;;;;;31.04;nan;100444.69;5035861;28;20029;-48
2021/05/11 11:26:32;;;;;;;3.33;2.33;;;;;;;31.16;nan;100449.06;5017766;28;20040;-50
2021/05/11 11:29:09;;;;;;;2.75;1.98;;;;;;;31.28;nan;100440.38;5036238;28;20032;-47
2021/05/11 11:31:37;;;;;;;5.82;2.08;;;;;;;31.26;nan;100440.00;5030996;28;20529;-47
2021/05/11 11:34:33;;;;;;;10.77;3.70;;;;;;;31.31;nan;100442.34;5034682;28;20393;-48
2021/05/11 11:37:15;;;;;;;8.20;4.05;;;;;;;31.56;nan;100434.00;5037448;28;20041;-50
2021/05/11 11:39:46;;;;;;;6.05;2.78;;;;;;;31.56;nan;100443.09;5040764;28;20028;-48
2021/05/11 11:42:25;;;;;;;7.88;2.97;;;;;;;31.53;nan;100434.81;5034272;28;20552;-48
2021/05/11 11:44:57;;;;;;;8.15;2.60;;;;;;;31.63;nan;100439.56;5032218;28;20025;-50
2021/05/11 11:47:23;;;;;;;4.25;2.30;;;;;;;31.79;nan;100442.72;5034051;28;20480;-47
2021/05/11 11:49:53;;;;;;;3.95;2.28;;;;;;;31.92;nan;100440.28;5017186;28;20029;-47
2021/05/11 11:53:06;;;;;;;3.65;1.90;;;;;;;32.05;nan;100432.34;5034661;28;20458;-48
2021/05/11 11:56:22;;;;;;;3.58;1.92;;;;;;;31.76;nan;100426.09;5025868;28;20072;-49
2021/05/11 11:58:04;;;;;;;8.25;3.65;;;;;;;31.96;nan;100430.00;5018168;28;20037;-47
2021/05/11 12:00:34;;;;;;;9.50;3.65;;;;;;;31.92;nan;100428.41;5036030;28;20029;-48
2021/05/11 12:03:06;;;;;;;9.48;3.60;;;;;;;31.93;nan;100425.25;5022928;28;20502;-46
2021/05/11 12:05:34;;;;;;;3.92;2.50;;;;;;;32.10;nan;100424.38;5036452;28;20079;-50
2021/05/11 12:10:43;;;;;;;6.38;2.47;;;;;;;32.01;nan;100424.03;5034990;28;21792;-47
2021/05/11 12:13:10;;;;;;;6.57;2.05;;;;;;;32.13;nan;100433.88;5035189;28;20033;-47
2021/05/11 12:15:37;;;;;;;12.77;4.30;;;;;;;32.37;nan;100435.78;5037463;28;20483;-47
2021/05/11 12:18:16;;;;;;;4.72;2.35;;;;;;;32.07;nan;100424.41;5030904;28;20028;-47
2021/05/11 12:20:42;;;;;;;3.80;2.00;;;;;;;32.48;nan;100427.41;5035831;28;20795;-47
2021/05/11 12:23:09;;;;;;;2.55;2.00;;;;;;;32.87;nan;100424.44;5036971;28;20109;-48
2021/05/11 12:25:36;;;;;;;4.20;2.10;;;;;;;33.46;nan;100427.09;5012542;28;20110;-46
2021/05/11 12:28:02;;;;;;;2.35;1.90;;;;;;;34.48;nan;100421.59;5036784;28;20076;-48
2021/05/11 12:30:40;;;;;;;5.75;1.98;;;;;;;36.65;nan;100404.88;5021065;28;20216;-47
2021/05/11 12:33:09;;;;;;;3.55;2.13;;;;;;;38.88;nan;100405.44;5035751;28;20033;-48
2021/05/11 12:35:35;;;;;;;6.75;2.03;;;;;;;40.19;nan;100397.19;5037035;28;20444;-48
2021/05/11 12:38:04;;;;;;;4.03;2.30;;;;;;;40.93;nan;100390.63;5038912;28;20024;-49
2021/05/11 12:43:40;;;;;;;6.93;2.28;;;;;;;41.31;nan;100395.06;5034159;28;20092;-49
2021/05/11 12:46:28;;;;;;;3.05;2.17;;;;;;;42.80;nan;100379.66;5013445;28;20044;-48
2021/05/11 12:48:59;;;;;;;4.93;2.38;;;;;;;44.11;nan;100368.31;5021228;28;20134;-51
2021/05/11 12:51:27;;;;;;;2.78;1.85;;;;;;;44.56;nan;100375.47;5034283;28;20025;-47
2021/05/11 12:53:55;;;;;;;2.65;1.95;;;;;;;45.73;nan;100376.09;5036588;28;20033;-51
2021/05/11 12:59:59;;;;;;;4.63;1.85;;;;;;;46.16;nan;100369.78;4973149;28;20129;-51
2021/05/11 13:02:35;;;;;;;2.10;1.50;;;;;;;47.39;nan;100359.81;4975712;28;20030;-50
2021/05/11 13:27:32;;;;;;;3.63;1.90;;;;;;;48.51;nan;100324.94;5038024;28;20031;-52
2021/05/11 13:35:11;;;;;;;8.55;1.98;;;;;;;50.47;nan;100312.91;5030734;28;20036;-51
2021/05/11 13:37:37;;;;;;;6.70;2.00;;;;;;;50.18;nan;100320.19;5033555;28;20024;-49
2021/05/11 13:40:04;;;;;;;3.95;1.80;;;;;;;50.33;nan;100316.94;5036640;28;20116;-51
2021/05/11 13:42:29;;;;;;;5.47;1.65;;;;;;;50.61;nan;100313.75;5032641;28;20043;-50
2021/05/11 13:44:56;;;;;;;2.30;1.80;;;;;;;50.45;nan;100309.78;5033037;28;20025;-51
2021/05/11 13:47:22;;;;;;;11.02;2.30;;;;;;;50.79;nan;100308.06;5033347;28;20025;-51
2021/05/11 13:49:52;;;;;;;3.25;1.63;;;;;;;50.48;nan;100312.38;5031066;28;20484;-51
2021/05/11 13:52:17;;;;;;;3.97;2.20;;;;;;;49.86;nan;100320.75;5033525;28;20029;-49
2021/05/11 13:54:44;;;;;;;9.70;2.22;;;;;;;49.67;nan;100308.50;5029537;28;20028;-50
2021/05/11 13:57:25;;;;;;;4.53;2.10;;;;;;;48.16;nan;100311.31;5032041;28;20033;-51
2021/05/11 14:03:08;;;;;;;2.35;1.75;;;;;;;43.92;nan;100321.81;5031936;28;20730;-51
2021/05/11 14:05:27;;;;;;;4.93;2.00;;;;;;;47.19;nan;100311.81;5029594;28;20197;-49
2021/05/11 14:07:52;;;;;;;3.03;2.10;;;;;;;49.31;nan;100305.69;5033552;28;20033;-50
2021/05/11 14:10:18;;;;;;;3.08;1.90;;;;;;;49.77;nan;100306.09;5037280;28;20123;-50
2021/05/11 14:12:44;;;;;;;4.80;2.10;;;;;;;48.12;nan;100303.03;5035806;28;20040;-49
2021/05/11 14:15:11;;;;;;;2.97;2.08;;;;;;;48.82;nan;100301.78;5035624;28;20040;-52
2021/05/11 14:17:36;;;;;;;2.75;2.17;;;;;;;49.29;nan;100296.13;5033544;28;20033;-50
2021/05/11 14:20:03;;;;;;;3.78;1.70;;;;;;;46.37;nan;100311.72;5036960;28;20044;-50
2021/05/11 14:22:29;;;;;;;3.53;2.05;;;;;;;47.39;nan;100307.97;5034017;28;20029;-52
2021/05/11 14:24:54;;;;;;;2.38;1.95;;;;;;;49.26;nan;100302.84;5038130;28;20039;-51
2021/05/11 14:27:20;;;;;;;3.22;1.77;;;;;;;50.29;nan;100288.75;5036421;28;20029;-55
2021/05/11 14:29:45;;;;;;;2.58;1.85;;;;;;;50.88;nan;100295.53;5035476;28;20033;-51
2021/05/11 14:32:11;;;;;;;4.15;2.03;;;;;;;48.51;nan;100297.28;5037140;28;20031;-52
2021/05/11 14:34:37;;;;;;;2.95;1.90;;;;;;;47.42;nan;100285.03;5036784;28;20021;-51
2021/05/11 14:37:04;;;;;;;3.03;2.28;;;;;;;48.64;nan;100280.44;5040826;28;20082;-52
2021/05/11 14:39:30;;;;;;;3.00;1.75;;;;;;;47.63;nan;100276.28;5035290;28;20493;-51
2021/05/11 14:41:57;;;;;;;2.70;2.10;;;;;;;43.30;nan;100269.22;5038209;28;20028;-48
2021/05/11 14:44:24;;;;;;;6.50;2.55;;;;;;;46.49;nan;100270.81;5033591;28;20071;-52
2021/05/11 14:46:55;;;;;;;2.70;2.10;;;;;;;47.36;nan;100260.75;5038202;28;20052;-51
2021/05/11 14:49:44;;;;;;;3.55;2.40;;;;;;;47.50;nan;100269.06;5039576;28;20059;-51
2021/05/11 14:52:12;;;;;;;3.72;2.10;;;;;;;47.90;nan;100261.28;5015193;28;20110;-52
2021/05/11 14:54:39;;;;;;;5.57;2.63;;;;;;;48.03;nan;100258.69;5038135;28;20025;-51
2021/05/11 14:57:05;;;;;;;5.15;2.60;;;;;;;48.74;nan;100258.19;5020477;28;20064;-52
2021/05/11 14:59:30;;;;;;;2.83;2.20;;;;;;;49.24;nan;100249.31;5038062;28;20107;-53
2021/05/11 15:01:56;;;;;;;4.47;2.08;;;;;;;49.66;nan;100255.72;5034707;28;20292;-51
2021/05/11 15:04:21;;;;;;;5.93;2.13;;;;;;;48.49;nan;100247.97;5035750;28;20436;-52
2021/05/11 15:06:47;;;;;;;3.25;2.05;;;;;;;47.20;nan;100250.97;5021951;28;20629;-53
2021/05/11 15:09:12;;;;;;;3.63;2.15;;;;;;;47.08;nan;100253.00;5036682;28;20114;-52
2021/05/11 15:11:38;;;;;;;5.05;2.20;;;;;;;44.95;nan;100252.91;5036934;28;20029;-49
2021/05/11 15:14:04;;;;;;;4.93;2.30;;;;;;;44.93;nan;100244.91;5033191;28;20025;-51
2021/05/11 15:16:35;;;;;;;3.83;2.00;;;;;;;44.29;nan;100249.50;5038201;28;20072;-52
2021/05/11 15:19:00;;;;;;;3.00;2.50;;;;;;;45.69;nan;100248.19;5036866;28;20556;-52
2021/05/11 15:21:26;;;;;;;2.83;2.15;;;;;;;46.64;nan;100242.28;5034277;28;20049;-51
2021/05/11 15:23:51;;;;;;;4.93;2.20;;;;;;;47.61;nan;100241.97;5035865;28;20036;-53
2021/05/11 15:26:17;;;;;;;4.60;2.40;;;;;;;47.99;nan;100243.22;5031137;28;20048;-52
2021/05/11 15:28:43;;;;;;;2.50;2.30;;;;;;;47.77;nan;100238.34;5040397;28;20581;-51
2021/05/11 15:31:09;;;;;;;8.82;2.47;;;;;;;47.58;nan;100242.97;5034840;28;21640;-52
2021/05/11 15:33:35;;;;;;;5.93;2.40;;;;;;;47.81;nan;100233.16;5038167;28;20029;-52
2021/05/11 15:36:00;;;;;;;5.53;2.22;;;;;;;47.43;nan;100235.50;5031880;28;20276;-50
2021/05/11 15:38:31;;;;;;;5.70;2.63;;;;;;;47.01;nan;100233.63;5034371;28;20028;-51
2021/05/11 15:40:57;;;;;;;12.98;2.85;;;;;;;47.22;nan;100235.00;5035609;28;20041;-52
2021/05/11 15:43:24;;;;;;;5.80;2.90;;;;;;;46.37;nan;100227.50;5034023;28;20024;-50
2021/05/11 15:45:50;;;;;;;5.72;2.70;;;;;;;46.79;nan;100225.88;5033526;28;20863;-51
2021/05/11 15:48:15;;;;;;;5.50;2.20;;;;;;;47.50;nan;100226.50;5034165;28;20033;-53
2021/05/11 15:50:46;;;;;;;6.82;2.55;;;;;;;47.59;nan;100221.84;5031470;28;20033;-52
2021/05/11 15:53:14;;;;;;;7.18;2.67;;;;;;;47.27;nan;100215.66;5032121;28;20119;-52
2021/05/11 15:55:43;;;;;;;4.60;2.50;;;;;;;47.11;nan;100214.31;5036970;28;20028;-50
2021/05/11 15:58:10;;;;;;;3.92;2.35;;;;;;;47.07;nan;100213.81;5031645;28;20036;-52
2021/05/11 16:00:38;;;;;;;3.22;2.30;;;;;;;47.17;nan;100206.59;5027365;28;20108;-49
2021/05/11 16:03:04;;;;;;;2.88;2.30;;;;;;;46.94;nan;100206.56;5032263;28;20060;-50
2021/05/11 16:05:35;;;;;;;9.80;2.53;;;;;;;46.82;nan;100213.50;5034489;28;20130;-52
2021/05/11 16:08:03;;;;;;;5.07;2.47;;;;;;;45.64;nan;100217.03;5033521;28;20029;-50
2021/05/11 16:10:28;;;;;;;4.03;2.03;;;;;;;42.77;nan;100219.25;5033124;28;20039;-52
2021/05/11 16:12:55;;;;;;;3.88;2.58;;;;;;;42.97;nan;100215.81;5033032;28;20025;-49